Time;durP1;ratioP1;P1;durP2;ratioP2;P2;SDS_P1;SDS_P2;PMS_P1;PMS_P2;Temp;Humidity;BMP_temperature;BMP_pressure;BME280_temperature;BME280_humidity;BME280_pressure;Samples;Min_cycle;Max_cycle;Signal;HPM_P1;HPM_P2
2023/05/05 00:01:05;;;;;;;10.25;5.13;;;11.10;99.90;;;;;;5063005;28;20044;-62
2023/05/05 00:03:32;;;;;;;8.95;5.07;;;10.90;99.90;;;;;;5062774;28;20097;-61
2023/05/05 00:05:57;;;;;;;11.77;5.25;;;10.90;99.90;;;;;;5063625;28;20345;-56
2023/05/05 00:08:23;;;;;;;7.95;5.13;;;10.90;99.90;;;;;;5063422;28;20040;-59
2023/05/05 00:10:50;;;;;;;8.65;4.80;;;11.00;99.90;;;;;;5060941;28;20438;-56
2023/05/05 00:13:17;;;;;;;9.38;5.03;;;10.80;99.90;;;;;;5063858;28;20119;-60
2023/05/05 00:15:44;;;;;;;9.20;5.00;;;10.80;99.90;;;;;;5063063;28;20083;-57
2023/05/05 00:18:11;;;;;;;6.07;4.55;;;10.70;99.90;;;;;;5063185;28;20044;-59
2023/05/05 00:20:37;;;;;;;13.43;5.20;;;10.70;99.90;;;;;;5062793;28;20048;-58
2023/05/05 00:23:03;;;;;;;10.15;5.38;;;10.70;99.90;;;;;;5062819;28;20180;-63
2023/05/05 00:25:28;;;;;;;9.63;5.30;;;10.70;99.90;;;;;;5062400;28;20295;-58
2023/05/05 00:27:54;;;;;;;7.68;5.35;;;10.60;99.90;;;;;;5060925;28;20044;-62
2023/05/05 00:30:21;;;;;;;10.10;5.22;;;10.70;99.90;;;;;;5062968;28;20521;-57
2023/05/05 00:32:47;;;;;;;10.10;5.40;;;10.60;99.90;;;;;;5063125;28;20056;-60
2023/05/05 00:35:14;;;;;;;7.88;5.13;;;10.60;99.90;;;;;;5061182;28;20299;-52
2023/05/05 00:37:40;;;;;;;11.48;5.43;;;10.60;99.90;;;;;;5062882;28;20044;-53
2023/05/05 00:40:07;;;;;;;9.05;5.20;;;10.50;99.90;;;;;;5062349;28;20495;-62
2023/05/05 00:42:40;;;;;;;10.45;5.40;;;10.50;99.90;;;;;;5062389;28;20111;-54
2023/05/05 00:45:06;;;;;;;8.57;4.72;;;10.50;99.90;;;;;;5062806;28;20177;-62
2023/05/05 00:47:32;;;;;;;9.52;5.13;;;10.50;99.90;;;;;;5062703;28;20562;-57
2023/05/05 00:49:57;;;;;;;12.32;5.47;;;10.50;99.90;;;;;;5062775;28;20036;-63
2023/05/05 00:52:23;;;;;;;8.95;5.57;;;10.50;99.90;;;;;;5061860;28;20129;-58
2023/05/05 00:54:49;;;;;;;9.48;5.20;;;10.60;99.90;;;;;;5061932;28;20047;-57
2023/05/05 00:57:15;;;;;;;8.82;5.15;;;10.50;99.90;;;;;;5062512;28;20140;-62
2023/05/05 00:59:42;;;;;;;11.35;5.50;;;10.50;99.90;;;;;;5061579;28;20041;-55
2023/05/05 01:02:09;;;;;;;10.05;5.35;;;10.50;99.90;;;;;;5061370;28;20068;-62
2023/05/05 01:04:35;;;;;;;7.57;5.03;;;10.50;99.90;;;;;;5061881;28;20527;-63
2023/05/05 01:07:12;;;;;;;12.85;5.35;;;10.50;99.90;;;;;;5142769;22;20036;-53
2023/05/05 01:09:46;;;;;;;9.75;5.30;;;10.50;99.90;;;;;;5022372;28;20135;-60
2023/05/05 01:12:24;;;;;;;13.38;5.80;;;10.50;99.90;;;;;;5024073;28;20041;-61
2023/05/05 01:15:06;;;;;;;9.82;5.07;;;10.50;99.90;;;;;;5024008;28;20125;-60
2023/05/05 01:17:42;;;;;;;10.43;5.25;;;10.50;99.90;;;;;;5022295;28;20103;-62
2023/05/05 01:20:30;;;;;;;9.88;5.10;;;10.50;99.90;;;;;;5022616;28;20349;-58
2023/05/05 01:23:02;;;;;;;8.93;5.65;;;10.50;99.90;;;;;;5022458;28;20041;-53
2023/05/05 01:25:58;;;;;;;11.32;5.97;;;10.50;99.90;;;;;;5022009;28;20212;-60
2023/05/05 01:28:37;;;;;;;13.93;5.65;;;10.40;99.90;;;;;;5021747;28;20157;-57
2023/05/05 01:31:20;;;;;;;9.02;5.25;;;10.40;99.90;;;;;;5004960;28;20045;-59
2023/05/05 01:33:54;;;;;;;13.23;5.20;;;10.40;99.90;;;;;;5021550;28;20033;-62
2023/05/05 01:36:30;;;;;;;10.77;5.63;;;10.40;99.90;;;;;;5022622;28;20049;-63
2023/05/05 01:38:59;;;;;;;11.38;6.03;;;10.30;99.90;;;;;;5021215;28;20155;-53
2023/05/05 01:41:45;;;;;;;10.80;5.70;;;10.30;99.90;;;;;;5022639;28;20053;-58
2023/05/05 01:44:13;;;;;;;11.93;5.07;;;10.30;99.90;;;;;;5022209;28;20076;-60
2023/05/05 01:46:39;;;;;;;12.65;5.80;;;10.30;99.90;;;;;;5021647;28;20183;-62
2023/05/05 01:49:06;;;;;;;11.80;6.15;;;10.20;99.90;;;;;;5021475;28;20120;-56
2023/05/05 01:51:32;;;;;;;12.57;6.25;;;10.20;99.90;;;;;;5021929;28;20041;-60
2023/05/05 01:54:02;;;;;;;10.13;5.88;;;10.20;99.90;;;;;;5020140;28;20038;-61
2023/05/05 01:56:30;;;;;;;12.95;5.45;;;10.20;99.90;;;;;;5021713;28;20662;-60
2023/05/05 01:58:57;;;;;;;8.35;4.95;;;10.20;99.90;;;;;;5021915;28;20053;-58
2023/05/05 02:01:24;;;;;;;11.60;6.07;;;10.20;99.90;;;;;;5021639;28;20042;-62
2023/05/05 02:03:52;;;;;;;12.63;6.07;;;10.10;99.90;;;;;;5021457;28;20188;-61
2023/05/05 02:06:20;;;;;;;11.30;5.68;;;10.10;99.90;;;;;;5021463;28;20045;-55
2023/05/05 02:08:47;;;;;;;11.50;5.45;;;10.20;99.90;;;;;;5002869;28;20053;-60
2023/05/05 02:11:14;;;;;;;11.75;6.13;;;10.10;99.90;;;;;;5021426;28;20069;-62
2023/05/05 02:13:41;;;;;;;13.77;5.75;;;10.10;99.90;;;;;;5021395;28;20549;-58
2023/05/05 02:16:08;;;;;;;10.00;6.20;;;10.10;99.90;;;;;;5020709;28;20037;-57
2023/05/05 02:18:35;;;;;;;10.25;5.25;;;10.20;99.90;;;;;;5021381;28;20060;-60
2023/05/05 02:21:02;;;;;;;12.73;5.93;;;10.10;99.90;;;;;;5021449;28;20038;-57
2023/05/05 02:23:28;;;;;;;10.52;5.70;;;10.10;99.90;;;;;;5023624;28;20124;-60
2023/05/05 02:25:58;;;;;;;10.45;5.78;;;10.00;99.90;;;;;;5024886;28;20053;-52
2023/05/05 02:28:35;;;;;;;7.72;5.72;;;10.00;99.90;;;;;;5025063;28;20049;-62
2023/05/05 02:31:03;;;;;;;9.02;5.47;;;10.00;99.90;;;;;;5024908;28;20175;-60
2023/05/05 02:33:33;;;;;;;12.85;5.90;;;10.00;99.90;;;;;;5025393;28;20389;-58
2023/05/05 02:36:07;;;;;;;11.57;5.43;;;10.00;99.90;;;;;;5025480;28;20568;-61
2023/05/05 02:38:36;;;;;;;10.55;5.88;;;10.00;99.90;;;;;;5005985;28;20121;-61
2023/05/05 02:41:03;;;;;;;11.60;6.10;;;10.00;99.90;;;;;;5025125;28;20503;-58
2023/05/05 02:43:31;;;;;;;12.40;5.78;;;10.00;99.90;;;;;;5025619;28;20060;-53
2023/05/05 02:45:57;;;;;;;11.20;5.88;;;10.00;99.90;;;;;;5025272;28;20045;-63
2023/05/05 02:48:23;;;;;;;10.73;5.43;;;10.10;99.90;;;;;;5007255;28;20523;-60
2023/05/05 02:50:48;;;;;;;9.95;5.53;;;10.10;99.90;;;;;;5025235;28;20056;-56
2023/05/05 02:53:14;;;;;;;9.73;5.20;;;10.10;99.90;;;;;;5023961;28;20041;-55
2023/05/05 02:55:49;;;;;;;8.90;5.57;;;10.20;99.90;;;;;;5024819;28;20081;-53
2023/05/05 02:58:26;;;;;;;10.93;5.57;;;10.10;99.90;;;;;;5024899;28;20245;-53
2023/05/05 03:01:00;;;;;;;8.60;5.60;;;10.10;99.90;;;;;;5024000;28;20073;-58
2023/05/05 03:03:43;;;;;;;13.77;5.70;;;10.10;99.90;;;;;;5024953;28;20076;-58
2023/05/05 03:06:12;;;;;;;9.70;5.70;;;10.20;99.90;;;;;;5024000;28;20394;-62
2023/05/05 03:08:59;;;;;;;12.07;5.60;;;10.20;99.90;;;;;;5023997;28;20361;-59
2023/05/05 03:11:31;;;;;;;9.20;5.35;;;10.20;99.90;;;;;;5024092;28;20061;-57
2023/05/05 03:14:18;;;;;;;9.00;5.47;;;10.20;99.90;;;;;;5024432;28;20091;-56
2023/05/05 03:16:45;;;;;;;9.25;5.15;;;10.20;99.90;;;;;;5023728;28;20435;-55
2023/05/05 03:19:13;;;;;;;8.38;4.97;;;10.20;99.90;;;;;;5024904;28;20037;-57
2023/05/05 03:21:39;;;;;;;11.38;5.30;;;10.20;99.90;;;;;;5024465;28;20436;-60
2023/05/05 03:24:18;;;;;;;11.52;5.53;;;10.20;99.90;;;;;;5022930;28;20053;-57
2023/05/05 03:26:45;;;;;;;10.07;5.60;;;10.20;99.90;;;;;;5006599;28;20042;-61
2023/05/05 03:29:12;;;;;;;9.98;5.07;;;10.20;99.90;;;;;;5024050;28;20042;-59
2023/05/05 03:31:38;;;;;;;8.30;4.72;;;10.20;99.90;;;;;;5024060;28;20049;-58
2023/05/05 03:34:03;;;;;;;10.07;5.50;;;10.20;99.90;;;;;;5024364;28;20413;-61
2023/05/05 03:36:29;;;;;;;8.77;4.85;;;10.30;99.90;;;;;;5024322;28;20128;-55
2023/05/05 03:38:55;;;;;;;10.13;5.18;;;10.20;99.90;;;;;;5006071;28;20507;-62
2023/05/05 03:41:22;;;;;;;13.30;5.30;;;10.20;99.90;;;;;;5023661;28;20120;-58
2023/05/05 03:43:48;;;;;;;9.32;4.60;;;10.20;99.90;;;;;;5023971;28;20407;-55
2023/05/05 03:46:14;;;;;;;6.72;4.93;;;10.30;99.90;;;;;;5006115;28;20054;-60
2023/05/05 03:48:40;;;;;;;8.40;5.35;;;10.20;99.90;;;;;;5023007;28;20050;-58
2023/05/05 03:51:06;;;;;;;6.78;4.75;;;10.20;99.90;;;;;;5006503;28;20506;-63
2023/05/05 03:53:32;;;;;;;10.40;5.00;;;10.20;99.90;;;;;;5023432;28;20046;-60
2023/05/05 03:55:57;;;;;;;7.80;4.65;;;10.10;99.90;;;;;;5023714;28;20049;-53
2023/05/05 03:58:23;;;;;;;10.13;5.20;;;10.10;99.90;;;;;;5023475;28;20091;-62
2023/05/05 04:00:49;;;;;;;9.85;5.13;;;10.10;99.90;;;;;;5023363;28;20038;-55
2023/05/05 04:03:15;;;;;;;11.25;5.57;;;10.10;99.90;;;;;;5023729;28;20048;-62
2023/05/05 04:05:41;;;;;;;9.02;5.07;;;10.10;99.90;;;;;;5005264;28;20041;-60
2023/05/05 04:08:06;;;;;;;8.27;4.65;;;10.10;99.90;;;;;;5023034;28;20053;-54
2023/05/05 04:10:32;;;;;;;9.32;5.03;;;10.10;99.90;;;;;;5024160;28;20042;-63
2023/05/05 04:12:58;;;;;;;10.68;4.97;;;10.00;99.90;;;;;;5022691;28;20285;-57
2023/05/05 04:15:24;;;;;;;7.47;4.93;;;10.10;99.90;;;;;;5023600;28;20034;-55
2023/05/05 04:17:49;;;;;;;9.88;5.20;;;10.10;99.90;;;;;;5023729;28;20065;-62
2023/05/05 04:20:15;;;;;;;10.85;5.30;;;10.10;99.90;;;;;;5023659;28;20050;-60
2023/05/05 04:22:41;;;;;;;10.75;5.65;;;10.10;99.90;;;;;;5022577;28;20053;-52
2023/05/05 04:25:06;;;;;;;12.98;5.45;;;10.10;99.90;;;;;;5023031;28;20041;-52
2023/05/05 04:27:32;;;;;;;8.73;4.80;;;10.10;99.90;;;;;;5023381;28;20053;-60
2023/05/05 04:29:58;;;;;;;8.63;4.97;;;10.20;99.90;;;;;;5022552;28;20334;-59
2023/05/05 04:32:23;;;;;;;8.95;4.72;;;10.20;99.90;;;;;;5023499;28;20489;-60
2023/05/05 04:34:49;;;;;;;8.20;5.10;;;10.30;99.90;;;;;;5023218;28;20680;-62
2023/05/05 04:37:15;;;;;;;6.97;5.00;;;10.30;99.90;;;;;;5023179;28;20378;-54
2023/05/05 04:39:40;;;;;;;9.43;5.30;;;10.40;99.90;;;;;;5021449;28;20056;-61
2023/05/05 04:42:07;;;;;;;9.40;5.15;;;10.50;99.90;;;;;;5023087;28;20038;-55
2023/05/05 04:44:33;;;;;;;9.35;5.28;;;10.60;99.90;;;;;;5023514;28;20539;-59
2023/05/05 04:46:59;;;;;;;10.25;4.93;;;10.70;99.90;;;;;;5021784;28;20041;-55
2023/05/05 04:49:27;;;;;;;9.40;5.20;;;10.80;99.90;;;;;;5023027;28;20557;-57
2023/05/05 04:51:53;;;;;;;9.23;5.03;;;10.80;99.90;;;;;;5023151;28;20045;-59
2023/05/05 04:54:19;;;;;;;7.95;5.13;;;10.80;99.90;;;;;;5021924;28;20041;-50
2023/05/05 04:56:44;;;;;;;9.45;5.22;;;10.70;99.90;;;;;;5022805;28;20041;-58
2023/05/05 04:59:10;;;;;;;8.82;5.05;;;10.70;99.90;;;;;;5022896;28;20071;-62
2023/05/05 05:01:35;;;;;;;11.98;5.80;;;10.60;99.90;;;;;;5022688;28;20040;-57
2023/05/05 05:04:01;;;;;;;11.30;5.60;;;10.50;99.90;;;;;;5021880;28;20558;-60
2023/05/05 05:06:28;;;;;;;10.52;6.00;;;10.40;99.90;;;;;;5004711;28;20042;-63
2023/05/05 05:08:54;;;;;;;9.45;6.25;;;10.30;99.90;;;;;;5003918;28;20061;-56
2023/05/05 05:11:20;;;;;;;10.18;6.65;;;10.20;99.90;;;;;;5021733;28;20242;-58
2023/05/05 05:13:46;;;;;;;11.60;6.57;;;10.20;99.90;;;;;;5022362;28;20457;-57
2023/05/05 05:16:12;;;;;;;15.02;6.38;;;10.20;99.90;;;;;;5022870;28;20480;-62
2023/05/05 05:18:38;;;;;;;7.68;5.88;;;10.10;99.90;;;;;;5022590;28;20037;-63
2023/05/05 05:21:03;;;;;;;10.88;6.40;;;10.20;99.90;;;;;;5021652;28;20476;-56
2023/05/05 05:23:29;;;;;;;9.93;6.72;;;10.10;99.90;;;;;;5021302;28;20119;-55
2023/05/05 05:25:56;;;;;;;13.05;6.90;;;10.10;99.90;;;;;;5022011;28;20033;-56
2023/05/05 05:28:21;;;;;;;10.68;6.35;;;10.10;99.90;;;;;;5004134;28;20518;-52
2023/05/05 05:30:47;;;;;;;11.57;6.10;;;10.00;99.90;;;;;;5021872;28;20228;-63
2023/05/05 05:33:13;;;;;;;11.40;6.80;;;10.00;99.90;;;;;;5021149;28;20044;-57
2023/05/05 05:35:39;;;;;;;12.02;6.35;;;9.90;99.90;;;;;;5002779;28;20057;-62
2023/05/05 05:38:05;;;;;;;10.50;6.80;;;9.90;99.90;;;;;;5000575;28;20058;-57
2023/05/05 05:40:31;;;;;;;12.48;6.38;;;9.80;99.90;;;;;;5002027;28;20045;-51
2023/05/05 05:42:56;;;;;;;11.15;6.47;;;9.80;99.90;;;;;;5002123;28;20067;-63
2023/05/05 05:45:22;;;;;;;12.32;6.82;;;9.80;99.90;;;;;;5001976;28;20058;-58
2023/05/05 05:47:48;;;;;;;12.82;7.00;;;9.80;99.90;;;;;;4984346;28;20140;-58
2023/05/05 05:50:14;;;;;;;12.25;5.93;;;9.80;99.90;;;;;;5002206;28;20041;-58
2023/05/05 05:52:39;;;;;;;8.55;6.03;;;9.80;99.90;;;;;;5001745;28;20053;-61
2023/05/05 05:55:06;;;;;;;9.13;6.45;;;9.80;99.90;;;;;;5001677;28;20351;-60
2023/05/05 05:57:32;;;;;;;12.68;6.65;;;9.70;99.90;;;;;;5001386;28;20125;-60
2023/05/05 05:59:57;;;;;;;9.23;6.70;;;9.80;99.90;;;;;;5001865;28;20133;-62
2023/05/05 06:02:25;;;;;;;9.20;6.47;;;9.80;99.90;;;;;;5001150;28;20128;-56
2023/05/05 06:04:51;;;;;;;12.52;7.10;;;9.80;99.90;;;;;;5001888;28;20056;-60
2023/05/05 06:07:16;;;;;;;11.48;6.88;;;9.80;99.90;;;;;;5000990;28;20042;-63
2023/05/05 06:09:42;;;;;;;8.63;6.47;;;9.80;99.90;;;;;;5001206;28;20042;-55
2023/05/05 06:12:08;;;;;;;13.25;6.75;;;9.90;99.90;;;;;;5002169;28;20049;-61
2023/05/05 06:14:33;;;;;;;12.23;6.90;;;9.90;99.90;;;;;;5001691;28;20481;-56
2023/05/05 06:16:59;;;;;;;11.63;6.47;;;9.90;99.90;;;;;;4984093;28;20058;-61
2023/05/05 06:19:25;;;;;;;10.38;6.93;;;9.90;99.90;;;;;;5000552;28;20100;-62
2023/05/05 06:21:50;;;;;;;11.73;6.85;;;9.90;99.90;;;;;;5001856;28;20049;-58
2023/05/05 06:24:16;;;;;;;11.15;6.57;;;10.10;99.90;;;;;;5000654;28;20452;-63
2023/05/05 06:26:41;;;;;;;9.80;6.32;;;10.10;99.90;;;;;;5001886;28;20048;-56
2023/05/05 06:29:07;;;;;;;10.52;6.65;;;10.20;99.90;;;;;;5002198;28;20081;-60
2023/05/05 06:31:33;;;;;;;11.45;7.10;;;10.20;99.90;;;;;;5021253;28;20289;-59
2023/05/05 06:33:58;;;;;;;11.02;6.95;;;10.20;99.90;;;;;;5021469;28;20115;-64
2023/05/05 06:36:25;;;;;;;10.68;7.03;;;10.30;99.90;;;;;;5020107;28;20038;-59
2023/05/05 06:38:50;;;;;;;11.38;6.90;;;10.30;99.90;;;;;;5020613;28;20519;-60
2023/05/05 06:41:17;;;;;;;14.88;6.95;;;10.40;99.90;;;;;;5021218;28;20037;-55
2023/05/05 06:43:43;;;;;;;11.98;7.35;;;10.50;99.90;;;;;;5020804;28;20084;-54
2023/05/05 06:46:09;;;;;;;11.65;7.40;;;10.90;99.90;;;;;;5021511;28;20065;-63
2023/05/05 06:48:35;;;;;;;11.15;6.70;;;10.90;99.90;;;;;;5021130;28;20041;-62
2023/05/05 06:51:01;;;;;;;11.52;6.55;;;11.00;99.90;;;;;;5021330;28;20053;-58
2023/05/05 06:53:27;;;;;;;14.70;7.15;;;11.10;99.90;;;;;;5002150;28;20046;-61
2023/05/05 06:55:52;;;;;;;10.38;6.80;;;11.10;99.90;;;;;;5020898;28;20045;-58
2023/05/05 06:58:19;;;;;;;9.70;7.07;;;11.00;99.90;;;;;;5021067;28;20507;-62
2023/05/05 07:00:45;;;;;;;10.38;6.55;;;10.90;99.90;;;;;;5020301;28;20046;-57
2023/05/05 07:03:11;;;;;;;12.23;6.93;;;11.00;99.90;;;;;;5021172;28;20053;-57
2023/05/05 07:05:36;;;;;;;12.10;6.78;;;10.90;99.90;;;;;;5020729;28;20321;-63
2023/05/05 07:08:02;;;;;;;9.50;6.85;;;10.90;99.90;;;;;;5019957;28;20518;-58
2023/05/05 07:10:28;;;;;;;11.77;7.10;;;10.80;99.90;;;;;;5024249;28;20049;-62
2023/05/05 07:12:54;;;;;;;11.48;7.05;;;10.80;99.90;;;;;;5024199;28;20231;-60
2023/05/05 07:15:21;;;;;;;15.40;6.70;;;10.80;99.90;;;;;;5024563;28;20053;-61
2023/05/05 07:17:46;;;;;;;10.27;7.30;;;10.80;99.90;;;;;;5023649;28;20038;-58
2023/05/05 07:20:12;;;;;;;9.38;6.82;;;10.80;99.90;;;;;;5024438;28;20296;-58
2023/05/05 07:22:38;;;;;;;12.15;7.38;;;10.80;99.90;;;;;;5024143;28;20077;-63
2023/05/05 07:25:04;;;;;;;10.75;8.20;;;10.90;99.90;;;;;;5024378;28;20045;-59
2023/05/05 07:27:31;;;;;;;9.73;7.35;;;10.90;99.90;;;;;;5024045;28;20045;-57
2023/05/05 07:29:57;;;;;;;10.18;7.53;;;11.00;99.90;;;;;;5025010;28;20396;-64
2023/05/05 07:32:23;;;;;;;12.23;7.45;;;11.10;99.90;;;;;;5023012;28;20045;-59
2023/05/05 07:34:49;;;;;;;11.77;7.80;;;11.40;99.90;;;;;;5004237;28;20516;-60
2023/05/05 07:37:15;;;;;;;10.35;7.72;;;11.70;99.90;;;;;;4987196;28;20140;-61
2023/05/05 07:39:40;;;;;;;12.40;7.30;;;12.00;99.90;;;;;;5003834;28;20033;-57
2023/05/05 07:42:06;;;;;;;12.90;8.07;;;12.20;99.90;;;;;;5004452;28;20044;-58
2023/05/05 07:44:32;;;;;;;11.40;7.15;;;12.50;99.90;;;;;;5003704;28;20629;-63
2023/05/05 07:46:58;;;;;;;10.60;7.60;;;12.70;99.90;;;;;;5005337;28;20100;-63
2023/05/05 07:49:24;;;;;;;10.57;7.13;;;12.90;99.90;;;;;;4986317;28;20048;-62
2023/05/05 07:51:49;;;;;;;10.10;7.22;;;13.00;99.90;;;;;;5003926;28;20038;-57
2023/05/05 07:54:16;;;;;;;9.13;7.25;;;13.20;99.90;;;;;;5003827;28;20580;-59
2023/05/05 07:56:42;;;;;;;9.65;6.70;;;13.60;99.90;;;;;;5003752;28;20290;-59
2023/05/05 07:59:08;;;;;;;13.05;7.35;;;13.70;99.90;;;;;;4986321;28;20058;-64
2023/05/05 08:01:34;;;;;;;9.65;7.18;;;13.70;99.90;;;;;;5003745;28;20034;-63
2023/05/05 08:04:00;;;;;;;10.50;7.03;;;13.90;99.90;;;;;;5003851;28;20053;-55
2023/05/05 08:06:27;;;;;;;10.40;6.97;;;14.00;99.90;;;;;;5004296;28;20034;-64
2023/05/05 08:08:54;;;;;;;10.05;7.35;;;14.10;99.90;;;;;;5002188;28;20065;-63
2023/05/05 08:11:20;;;;;;;11.82;7.22;;;14.40;99.90;;;;;;5004163;28;20180;-51
2023/05/05 08:13:46;;;;;;;12.98;6.95;;;14.50;99.90;;;;;;5012838;28;20063;-65
2023/05/05 08:16:12;;;;;;;10.02;6.95;;;14.70;99.90;;;;;;5014523;28;20514;-60
2023/05/05 08:18:38;;;;;;;11.35;7.05;;;14.90;99.90;;;;;;5023662;28;20516;-62
2023/05/05 08:21:05;;;;;;;13.52;7.55;;;14.80;99.90;;;;;;5004550;28;20033;-59
2023/05/05 08:23:32;;;;;;;12.20;7.63;;;14.90;99.90;;;;;;5022793;28;20052;-58
2023/05/05 08:25:57;;;;;;;9.75;6.32;;;15.10;99.90;;;;;;5023313;28;20038;-66
2023/05/05 08:28:23;;;;;;;10.02;6.85;;;15.20;99.90;;;;;;5023212;28;20487;-64
2023/05/05 08:30:49;;;;;;;10.20;7.00;;;15.40;99.90;;;;;;5023680;28;20562;-61
2023/05/05 08:33:15;;;;;;;11.48;8.07;;;15.50;99.90;;;;;;5022679;28;20373;-66
2023/05/05 08:35:42;;;;;;;10.90;8.00;;;15.40;99.90;;;;;;5023388;28;20314;-56
2023/05/05 08:38:08;;;;;;;11.32;7.38;;;15.30;99.90;;;;;;5022240;28;20099;-63
2023/05/05 08:40:35;;;;;;;14.48;8.05;;;15.20;99.90;;;;;;5004461;28;20049;-64
2023/05/05 08:43:01;;;;;;;11.77;7.85;;;15.30;99.90;;;;;;5022965;28;20124;-59
2023/05/05 08:45:28;;;;;;;12.15;7.95;;;15.40;99.90;;;;;;5022888;28;20088;-57
2023/05/05 08:48:00;;;;;;;9.45;6.97;;;15.40;99.90;;;;;;5005147;28;20423;-62
2023/05/05 08:50:27;;;;;;;13.13;7.60;;;15.40;99.90;;;;;;5022708;28;20539;-59
2023/05/05 08:53:04;;;;;;;12.48;8.35;;;15.50;99.90;;;;;;5022091;28;20065;-58
2023/05/05 08:55:33;;;;;;;12.05;8.88;;;15.50;99.90;;;;;;5021588;28;20045;-55
2023/05/05 08:58:02;;;;;;;11.98;8.00;;;15.70;99.90;;;;;;5022239;28;20080;-57
2023/05/05 09:00:28;;;;;;;12.48;8.25;;;15.80;99.90;;;;;;5022496;28;20049;-57
2023/05/05 09:02:56;;;;;;;12.95;8.73;;;16.00;99.90;;;;;;5021515;28;20520;-59
2023/05/05 09:05:22;;;;;;;12.75;7.95;;;16.00;99.90;;;;;;5022434;28;20046;-56
2023/05/05 09:07:48;;;;;;;11.52;7.95;;;16.10;99.90;;;;;;5021774;28;20053;-61
2023/05/05 09:10:14;;;;;;;13.50;9.25;;;16.30;99.90;;;;;;5022100;28;20068;-61
2023/05/05 09:12:40;;;;;;;12.52;8.18;;;16.60;99.90;;;;;;5021678;28;20108;-55
2023/05/05 09:15:08;;;;;;;10.80;7.82;;;16.80;99.90;;;;;;5022353;28;20850;-61
2023/05/05 09:17:34;;;;;;;12.18;8.32;;;16.90;99.90;;;;;;5022119;28;20045;-63
2023/05/05 09:20:07;;;;;;;10.85;8.52;;;16.80;99.90;;;;;;5021838;28;20045;-54
2023/05/05 09:22:43;;;;;;;13.40;8.07;;;16.90;99.90;;;;;;5004132;28;20057;-59
2023/05/05 09:25:13;;;;;;;11.30;8.18;;;17.30;99.90;;;;;;5021583;28;20053;-56
2023/05/05 09:27:44;;;;;;;13.10;8.85;;;17.60;99.90;;;;;;5021987;28;20119;-62
2023/05/05 09:30:14;;;;;;;12.73;9.10;;;17.50;99.90;;;;;;5021847;28;20120;-58
2023/05/05 09:32:53;;;;;;;10.85;8.52;;;17.30;99.90;;;;;;5021675;28;20469;-58
2023/05/05 09:35:20;;;;;;;13.13;9.05;;;17.30;99.90;;;;;;5021762;28;20188;-61
2023/05/05 09:37:46;;;;;;;14.70;9.80;;;17.40;99.90;;;;;;5021045;28;20081;-65
2023/05/05 09:40:13;;;;;;;14.18;8.90;;;17.40;99.90;;;;;;5020909;28;20146;-59
2023/05/05 09:42:40;;;;;;;12.27;9.40;;;17.50;99.90;;;;;;5004091;28;20095;-57
2023/05/05 09:45:17;;;;;;;16.02;9.68;;;17.50;99.90;;;;;;5021346;28;20045;-58
2023/05/05 09:47:44;;;;;;;11.85;9.95;;;17.60;99.90;;;;;;5021126;28;20056;-51
2023/05/05 09:50:17;;;;;;;11.85;9.77;;;17.70;99.90;;;;;;5021595;28;20065;-67
2023/05/05 09:52:54;;;;;;;12.05;9.25;;;17.80;99.90;;;;;;5002966;28;20253;-56
2023/05/05 09:55:21;;;;;;;11.15;9.45;;;18.10;99.90;;;;;;5021693;28;20084;-59
2023/05/05 09:57:46;;;;;;;12.68;10.43;;;18.30;99.90;;;;;;5021276;28;20076;-62
2023/05/05 10:00:13;;;;;;;11.65;10.00;;;18.20;99.90;;;;;;5020818;28;20143;-61
2023/05/05 10:02:39;;;;;;;12.30;10.82;;;18.30;99.90;;;;;;5021028;28;20124;-60
2023/05/05 10:05:16;;;;;;;12.38;10.63;;;18.40;99.90;;;;;;5020699;28;20085;-57
2023/05/05 10:07:44;;;;;;;17.27;11.52;;;18.70;99.90;;;;;;5019573;28;20053;-58
2023/05/05 10:10:12;;;;;;;16.45;11.27;;;18.90;99.90;;;;;;5021376;28;20053;-64
2023/05/05 10:12:38;;;;;;;13.85;10.52;;;19.20;99.90;;;;;;5021144;28;20235;-64
2023/05/05 10:15:06;;;;;;;13.82;10.68;;;19.40;99.90;;;;;;5002159;28;20131;-60
2023/05/05 10:17:48;;;;;;;14.98;10.60;;;19.60;99.90;;;;;;5020359;28;20116;-62
2023/05/05 10:20:15;;;;;;;14.05;11.05;;;19.50;99.90;;;;;;5020757;28;20048;-65
2023/05/05 10:22:51;;;;;;;17.90;12.43;;;19.60;99.90;;;;;;5019552;28;20045;-61
2023/05/05 10:25:25;;;;;;;16.85;12.10;;;19.80;99.90;;;;;;5020693;28;20122;-54
2023/05/05 10:27:54;;;;;;;13.75;11.95;;;19.80;99.90;;;;;;5020151;28;20092;-58
2023/05/05 10:30:26;;;;;;;14.60;12.18;;;19.80;99.90;;;;;;5002761;28;20519;-62
2023/05/05 10:33:18;;;;;;;14.50;11.55;;;19.70;99.90;;;;;;5020916;28;20060;-65
2023/05/05 10:35:48;;;;;;;15.52;11.98;;;19.90;99.90;;;;;;5020777;28;20045;-57
2023/05/05 10:38:16;;;;;;;17.60;12.55;;;20.00;99.90;;;;;;5019496;28;20238;-61
2023/05/05 10:40:44;;;;;;;13.88;11.23;;;20.30;99.90;;;;;;5019529;28;20034;-56
2023/05/05 10:43:10;;;;;;;15.20;11.95;;;20.50;99.90;;;;;;5020459;28;20283;-62
2023/05/05 10:45:36;;;;;;;15.63;12.65;;;20.70;99.90;;;;;;5024342;28;20041;-59
2023/05/05 10:48:07;;;;;;;15.40;13.07;;;20.70;99.90;;;;;;5023700;28;20045;-59
2023/05/05 10:50:37;;;;;;;14.45;12.23;;;20.60;99.90;;;;;;5006518;28;20224;-59
2023/05/05 10:53:22;;;;;;;16.25;13.32;;;20.50;99.90;;;;;;5023718;28;20040;-61
2023/05/05 10:55:55;;;;;;;17.88;13.65;;;20.70;99.90;;;;;;5024177;28;20450;-55
2023/05/05 10:58:40;;;;;;;14.77;12.13;;;20.90;99.90;;;;;;5024193;28;20512;-65
2023/05/05 11:01:06;;;;;;;14.98;12.50;;;21.00;99.80;;;;;;5024403;28;20107;-63
2023/05/05 11:03:32;;;;;;;15.43;13.30;;;21.00;99.90;;;;;;5024005;28;20652;-61
2023/05/05 11:06:06;;;;;;;17.42;13.05;;;21.10;99.90;;;;;;5024249;28;20080;-61
2023/05/05 11:08:38;;;;;;;17.77;13.05;;;21.20;99.50;;;;;;5023484;28;20049;-58
2023/05/05 11:11:04;;;;;;;18.35;13.43;;;21.00;99.20;;;;;;5024142;28;20349;-55
2023/05/05 11:13:30;;;;;;;15.93;13.77;;;20.60;99.60;;;;;;5023706;28;20197;-54
2023/05/05 11:15:57;;;;;;;18.63;14.15;;;20.30;99.90;;;;;;5024382;28;20129;-57
2023/05/05 11:18:38;;;;;;;19.05;14.38;;;20.00;99.90;;;;;;5024302;28;20539;-55
2023/05/05 11:21:14;;;;;;;16.05;14.13;;;19.80;99.90;;;;;;5023090;28;20046;-60
2023/05/05 11:23:52;;;;;;;17.90;15.07;;;19.80;99.90;;;;;;5023299;28;20046;-58
2023/05/05 11:26:50;;;;;;;17.10;15.05;;;19.90;99.90;;;;;;5022628;28;20145;-61
2023/05/05 11:29:16;;;;;;;16.08;14.23;;;20.20;99.90;;;;;;5023730;28;20041;-62
2023/05/05 11:31:42;;;;;;;17.35;14.18;;;20.40;99.90;;;;;;5022821;28;20060;-59
2023/05/05 11:34:27;;;;;;;17.67;14.50;;;20.40;99.90;;;;;;5023545;28;20042;-61
2023/05/05 11:36:58;;;;;;;15.95;13.55;;;20.50;99.90;;;;;;5022156;28;20052;-63
2023/05/05 11:39:47;;;;;;;17.77;15.02;;;20.90;99.90;;;;;;5022960;28;20429;-60
2023/05/05 11:42:24;;;;;;;18.33;13.65;;;21.10;99.90;;;;;;4994444;28;20053;-63
2023/05/05 11:44:51;;;;;;;15.38;13.75;;;21.20;99.90;;;;;;5023096;28;20061;-63
2023/05/05 11:47:16;;;;;;;19.33;15.43;;;21.30;99.90;;;;;;5023146;28;20038;-60
2023/05/05 11:49:42;;;;;;;18.98;14.48;;;21.30;99.90;;;;;;5022869;28;20723;-57
2023/05/05 11:52:09;;;;;;;19.08;15.80;;;21.10;99.90;;;;;;5023049;28;20159;-60
2023/05/05 11:54:36;;;;;;;19.42;15.60;;;20.90;99.90;;;;;;5022884;28;20042;-56
2023/05/05 11:57:07;;;;;;;20.20;15.85;;;20.90;99.90;;;;;;5023626;28;20045;-52
2023/05/05 11:59:47;;;;;;;16.35;14.55;;;20.80;99.90;;;;;;5026022;28;20046;-51
2023/05/05 12:02:16;;;;;;;19.63;15.20;;;20.80;99.90;;;;;;5024346;28;20481;-64
2023/05/05 12:04:42;;;;;;;18.50;15.95;;;20.70;99.90;;;;;;5021654;28;20557;-60
2023/05/05 12:07:17;;;;;;;19.55;15.18;;;20.70;99.90;;;;;;5022063;28;20124;-61
2023/05/05 12:09:44;;;;;;;17.73;15.95;;;20.70;99.90;;;;;;5023054;28;20048;-54
2023/05/05 12:12:10;;;;;;;19.40;16.02;;;20.80;99.90;;;;;;5022690;28;20242;-61
2023/05/05 12:14:44;;;;;;;17.02;15.20;;;20.80;99.90;;;;;;5022950;28;20045;-56
2023/05/05 12:17:10;;;;;;;17.58;15.68;;;20.90;99.90;;;;;;5022197;28;20057;-58
2023/05/05 12:19:35;;;;;;;20.98;16.48;;;21.10;99.90;;;;;;5004750;28;20049;-58
2023/05/05 12:22:02;;;;;;;17.60;15.57;;;21.10;99.90;;;;;;5022292;28;20034;-59
2023/05/05 12:24:31;;;;;;;16.90;15.20;;;21.20;99.90;;;;;;5022842;28;20041;-58
2023/05/05 12:27:09;;;;;;;17.83;15.45;;;21.20;99.90;;;;;;5022151;28;20029;-58
2023/05/05 12:29:35;;;;;;;21.38;15.43;;;21.20;99.90;;;;;;5022759;28;20045;-54
2023/05/05 12:32:02;;;;;;;17.38;15.30;;;21.20;99.90;;;;;;5022482;28;20050;-59
2023/05/05 12:34:27;;;;;;;21.10;15.25;;;21.10;99.90;;;;;;5022244;28;20061;-55
2023/05/05 12:36:53;;;;;;;21.17;16.13;;;21.00;99.90;;;;;;5021340;28;20496;-60
2023/05/05 12:39:19;;;;;;;18.52;15.93;;;20.80;99.90;;;;;;5022188;28;20033;-57
2023/05/05 12:41:45;;;;;;;19.40;15.75;;;20.80;99.90;;;;;;5021988;28;20068;-54
2023/05/05 12:44:11;;;;;;;21.70;16.13;;;20.60;99.90;;;;;;5022265;28;20501;-56